sensor_id;sensor_type;location;lat;lon;timestamp;pressure;altitude;pressure_sealevel;temperature;humidity
61128;BME280;47013;42.664;23.242;2023-08-24T00:00:40;94156.59;;;22.57;65.63
61128;BME280;47013;42.664;23.242;2023-08-24T00:03:06;94156.81;;;22.54;65.55
61128;BME280;47013;42.664;23.242;2023-08-24T00:05:38;94163.75;;;22.49;65.55
61128;BME280;47013;42.664;23.242;2023-08-24T00:08:07;94165.19;;;22.45;66.48
61128;BME280;47013;42.664;23.242;2023-08-24T00:10:37;94153.09;;;22.42;65.88
61128;BME280;47013;42.664;23.242;2023-08-24T00:13:03;94151.47;;;22.35;66.49
61128;BME280;47013;42.664;23.242;2023-08-24T00:15:29;94155.19;;;22.32;66.82
61128;BME280;47013;42.664;23.242;2023-08-24T00:17:55;94161.19;;;22.31;67.32
61128;BME280;47013;42.664;23.242;2023-08-24T00:20:20;94143.56;;;22.28;67.70
61128;BME280;47013;42.664;23.242;2023-08-24T00:22:46;94144.34;;;22.29;67.65
61128;BME280;47013;42.664;23.242;2023-08-24T00:25:12;94149.66;;;22.32;67.80
61128;BME280;47013;42.664;23.242;2023-08-24T00:27:37;94139.09;;;22.31;67.95
61128;BME280;47013;42.664;23.242;2023-08-24T00:30:04;94135.28;;;22.28;67.82
61128;BME280;47013;42.664;23.242;2023-08-24T00:32:31;94141.56;;;22.29;67.51
61128;BME280;47013;42.664;23.242;2023-08-24T00:34:58;94138.88;;;22.20;67.85
61128;BME280;47013;42.664;23.242;2023-08-24T00:37:24;94141.38;;;22.18;67.62
61128;BME280;47013;42.664;23.242;2023-08-24T00:39:49;94142.59;;;22.17;68.04
61128;BME280;47013;42.664;23.242;2023-08-24T00:42:14;94145.66;;;22.19;68.72
61128;BME280;47013;42.664;23.242;2023-08-24T00:44:41;94148.41;;;22.19;68.39
61128;BME280;47013;42.664;23.242;2023-08-24T00:47:09;94151.75;;;22.23;68.77
61128;BME280;47013;42.664;23.242;2023-08-24T00:49:35;94154.50;;;22.23;69.33
61128;BME280;47013;42.664;23.242;2023-08-24T00:52:01;94153.53;;;22.26;68.86
61128;BME280;47013;42.664;23.242;2023-08-24T00:54:26;94155.09;;;22.27;69.11
61128;BME280;47013;42.664;23.242;2023-08-24T00:56:53;94158.63;;;22.27;69.21
61128;BME280;47013;42.664;23.242;2023-08-24T00:59:18;94151.53;;;22.26;68.64
61128;BME280;47013;42.664;23.242;2023-08-24T01:01:45;94156.31;;;22.26;68.76
61128;BME280;47013;42.664;23.242;2023-08-24T01:04:12;94153.25;;;22.24;68.90
61128;BME280;47013;42.664;23.242;2023-08-24T01:06:38;94161.28;;;22.22;69.13
61128;BME280;47013;42.664;23.242;2023-08-24T01:09:04;94155.75;;;22.22;68.78
61128;BME280;47013;42.664;23.242;2023-08-24T01:11:49;94149.19;;;22.19;68.81
61128;BME280;47013;42.664;23.242;2023-08-24T01:16:48;94152.31;;;22.12;68.87
61128;BME280;47013;42.664;23.242;2023-08-24T01:21:54;94144.50;;;22.11;68.82
61128;BME280;47013;42.664;23.242;2023-08-24T01:24:30;94133.44;;;22.11;68.88
61128;BME280;47013;42.664;23.242;2023-08-24T01:26:58;94133.53;;;22.01;68.20
61128;BME280;47013;42.664;23.242;2023-08-24T01:29:25;94134.38;;;21.93;68.80
61128;BME280;47013;42.664;23.242;2023-08-24T01:31:50;94138.84;;;21.90;70.04
61128;BME280;47013;42.664;23.242;2023-08-24T01:34:16;94143.59;;;21.90;70.06
61128;BME280;47013;42.664;23.242;2023-08-24T01:36:43;94137.78;;;21.88;69.77
61128;BME280;47013;42.664;23.242;2023-08-24T01:39:28;94136.25;;;21.87;69.83
61128;BME280;47013;42.664;23.242;2023-08-24T01:41:57;94136.44;;;21.83;69.89
61128;BME280;47013;42.664;23.242;2023-08-24T01:44:27;94137.66;;;21.82;69.94
61128;BME280;47013;42.664;23.242;2023-08-24T01:46:55;94144.72;;;21.83;70.59
61128;BME280;47013;42.664;23.242;2023-08-24T01:49:22;94148.53;;;21.86;70.38
61128;BME280;47013;42.664;23.242;2023-08-24T01:51:49;94149.75;;;21.85;70.52
61128;BME280;47013;42.664;23.242;2023-08-24T01:54:15;94158.22;;;21.81;70.40
61128;BME280;47013;42.664;23.242;2023-08-24T01:56:40;94153.66;;;21.78;70.64
61128;BME280;47013;42.664;23.242;2023-08-24T01:59:06;94150.63;;;21.76;70.76
61128;BME280;47013;42.664;23.242;2023-08-24T02:01:31;94156.13;;;21.76;71.02
61128;BME280;47013;42.664;23.242;2023-08-24T02:03:57;94154.28;;;21.73;71.34
61128;BME280;47013;42.664;23.242;2023-08-24T02:06:22;94152.78;;;21.72;71.36
61128;BME280;47013;42.664;23.242;2023-08-24T02:08:47;94157.25;;;21.69;71.31
61128;BME280;47013;42.664;23.242;2023-08-24T02:11:13;94160.97;;;21.66;71.37
61128;BME280;47013;42.664;23.242;2023-08-24T02:13:38;94161.59;;;21.61;71.76
61128;BME280;47013;42.664;23.242;2023-08-24T02:16:05;94160.25;;;21.57;72.28
61128;BME280;47013;42.664;23.242;2023-08-24T02:18:31;94157.88;;;21.49;72.57
61128;BME280;47013;42.664;23.242;2023-08-24T02:20:57;94171.06;;;21.45;73.23
61128;BME280;47013;42.664;23.242;2023-08-24T02:23:22;94163.25;;;21.44;73.59
61128;BME280;47013;42.664;23.242;2023-08-24T02:25:47;94162.19;;;21.41;73.99
61128;BME280;47013;42.664;23.242;2023-08-24T02:28:13;94165.63;;;21.36;74.13
61128;BME280;47013;42.664;23.242;2023-08-24T02:30:38;94155.97;;;21.32;74.29
61128;BME280;47013;42.664;23.242;2023-08-24T02:33:04;94172.34;;;21.35;74.68
61128;BME280;47013;42.664;23.242;2023-08-24T02:35:30;94175.88;;;21.36;74.96
61128;BME280;47013;42.664;23.242;2023-08-24T02:37:55;94170.72;;;21.29;74.56
61128;BME280;47013;42.664;23.242;2023-08-24T02:40:22;94169.00;;;21.31;75.00
61128;BME280;47013;42.664;23.242;2023-08-24T02:42:47;94157.69;;;21.29;74.73
61128;BME280;47013;42.664;23.242;2023-08-24T02:45:13;94151.72;;;21.21;74.71
61128;BME280;47013;42.664;23.242;2023-08-24T02:47:38;94146.66;;;21.20;75.10
61128;BME280;47013;42.664;23.242;2023-08-24T02:50:05;94135.53;;;21.14;74.96
61128;BME280;47013;42.664;23.242;2023-08-24T02:52:31;94134.47;;;21.12;75.07
61128;BME280;47013;42.664;23.242;2023-08-24T02:54:57;94131.44;;;21.10;74.93
61128;BME280;47013;42.664;23.242;2023-08-24T02:57:23;94128.53;;;21.04;75.17
61128;BME280;47013;42.664;23.242;2023-08-24T02:59:48;94125.19;;;21.00;75.13
61128;BME280;47013;42.664;23.242;2023-08-24T03:02:14;94130.72;;;21.00;75.78
61128;BME280;47013;42.664;23.242;2023-08-24T03:04:39;94125.50;;;21.02;76.15
61128;BME280;47013;42.664;23.242;2023-08-24T03:07:04;94129.13;;;21.08;75.97
61128;BME280;47013;42.664;23.242;2023-08-24T03:09:34;94133.25;;;21.13;75.93
61128;BME280;47013;42.664;23.242;2023-08-24T03:11:59;94148.25;;;21.12;75.88
61128;BME280;47013;42.664;23.242;2023-08-24T03:14:25;94158.81;;;21.13;75.94
61128;BME280;47013;42.664;23.242;2023-08-24T03:16:50;94159.88;;;21.16;75.61
61128;BME280;47013;42.664;23.242;2023-08-24T03:19:15;94165.09;;;21.14;75.59
61128;BME280;47013;42.664;23.242;2023-08-24T03:21:43;94163.72;;;21.09;75.49
61128;BME280;47013;42.664;23.242;2023-08-24T03:24:08;94174.94;;;21.06;75.86
61128;BME280;47013;42.664;23.242;2023-08-24T03:26:34;94184.25;;;21.08;76.32
61128;BME280;47013;42.664;23.242;2023-08-24T03:28:59;94185.78;;;21.09;76.31
61128;BME280;47013;42.664;23.242;2023-08-24T03:31:25;94185.50;;;21.07;75.81
61128;BME280;47013;42.664;23.242;2023-08-24T03:33:51;94184.16;;;21.03;75.88
61128;BME280;47013;42.664;23.242;2023-08-24T03:36:17;94189.66;;;21.03;75.99
61128;BME280;47013;42.664;23.242;2023-08-24T03:38:42;94183.88;;;20.91;75.23
61128;BME280;47013;42.664;23.242;2023-08-24T03:41:07;94193.22;;;20.94;76.20
61128;BME280;47013;42.664;23.242;2023-08-24T03:43:34;94190.75;;;20.96;76.14
61128;BME280;47013;42.664;23.242;2023-08-24T03:46:01;94184.47;;;20.96;76.42
61128;BME280;47013;42.664;23.242;2023-08-24T03:48:27;94191.22;;;20.95;75.75
61128;BME280;47013;42.664;23.242;2023-08-24T03:50:56;94195.66;;;20.92;75.96
61128;BME280;47013;42.664;23.242;2023-08-24T03:53:22;94193.09;;;20.88;76.27
61128;BME280;47013;42.664;23.242;2023-08-24T03:55:48;94198.91;;;20.90;76.54
61128;BME280;47013;42.664;23.242;2023-08-24T03:58:16;94199.19;;;20.92;76.90
61128;BME280;47013;42.664;23.242;2023-08-24T04:00:42;94201.66;;;20.90;76.80
61128;BME280;47013;42.664;23.242;2023-08-24T04:03:08;94197.88;;;20.70;77.21
61128;BME280;47013;42.664;23.242;2023-08-24T04:05:33;94195.75;;;20.74;77.74
61128;BME280;47013;42.664;23.242;2023-08-24T04:07:59;94197.28;;;20.75;77.08
61128;BME280;47013;42.664;23.242;2023-08-24T04:10:29;94197.28;;;20.75;77.20
61128;BME280;47013;42.664;23.242;2023-08-24T04:12:54;94192.53;;;20.75;77.22
61128;BME280;47013;42.664;23.242;2023-08-24T04:15:19;94197.88;;;20.70;77.45
61128;BME280;47013;42.664;23.242;2023-08-24T04:17:46;94193.78;;;20.65;78.04
61128;BME280;47013;42.664;23.242;2023-08-24T04:20:12;94196.06;;;20.67;77.88
61128;BME280;47013;42.664;23.242;2023-08-24T04:22:37;94195.59;;;20.68;77.94
61128;BME280;47013;42.664;23.242;2023-08-24T04:25:03;94191.94;;;20.71;78.36
61128;BME280;47013;42.664;23.242;2023-08-24T04:27:29;94196.69;;;20.71;77.94
61128;BME280;47013;42.664;23.242;2023-08-24T04:29:54;94190.72;;;20.72;77.69
61128;BME280;47013;42.664;23.242;2023-08-24T04:32:20;94198.03;;;20.75;77.41
61128;BME280;47013;42.664;23.242;2023-08-24T04:34:45;94194.81;;;20.77;76.73
61128;BME280;47013;42.664;23.242;2023-08-24T04:37:11;94190.38;;;20.79;76.77
61128;BME280;47013;42.664;23.242;2023-08-24T04:39:36;94194.03;;;20.85;76.70
61128;BME280;47013;42.664;23.242;2023-08-24T04:42:02;94197.19;;;20.93;77.29
61128;BME280;47013;42.664;23.242;2023-08-24T04:44:28;94198.09;;;20.99;77.26
61128;BME280;47013;42.664;23.242;2023-08-24T04:46:53;94202.56;;;20.97;77.45
61128;BME280;47013;42.664;23.242;2023-08-24T04:49:18;94210.97;;;20.93;78.00
61128;BME280;47013;42.664;23.242;2023-08-24T04:51:44;94211.75;;;20.94;77.73
61128;BME280;47013;42.664;23.242;2023-08-24T04:54:09;94208.59;;;20.77;77.77
61128;BME280;47013;42.664;23.242;2023-08-24T04:56:35;94207.13;;;20.57;78.76
61128;BME280;47013;42.664;23.242;2023-08-24T04:59:00;94198.09;;;20.57;78.17
61128;BME280;47013;42.664;23.242;2023-08-24T05:01:27;94198.25;;;20.53;77.56
61128;BME280;47013;42.664;23.242;2023-08-24T05:03:54;94193.31;;;20.67;77.56
61128;BME280;47013;42.664;23.242;2023-08-24T05:06:20;94194.66;;;20.80;77.55
61128;BME280;47013;42.664;23.242;2023-08-24T05:08:45;94193.97;;;20.95;77.49
61128;BME280;47013;42.664;23.242;2023-08-24T05:11:12;94198.81;;;21.09;77.41
61128;BME280;47013;42.664;23.242;2023-08-24T05:13:42;94203.06;;;21.19;77.79
61128;BME280;47013;42.664;23.242;2023-08-24T05:16:09;94208.25;;;21.26;77.64
61128;BME280;47013;42.664;23.242;2023-08-24T05:18:34;94200.91;;;21.23;77.06
61128;BME280;47013;42.664;23.242;2023-08-24T05:21:03;94203.50;;;21.27;76.30
61128;BME280;47013;42.664;23.242;2023-08-24T05:23:29;94212.03;;;21.38;76.08
61128;BME280;47013;42.664;23.242;2023-08-24T05:25:56;94204.28;;;21.51;75.41
61128;BME280;47013;42.664;23.242;2023-08-24T05:28:22;94215.09;;;21.64;74.87
61128;BME280;47013;42.664;23.242;2023-08-24T05:30:48;94219.28;;;21.74;74.02
61128;BME280;47013;42.664;23.242;2023-08-24T05:33:13;94222.66;;;21.78;74.73
61128;BME280;47013;42.664;23.242;2023-08-24T05:35:39;94224.00;;;21.83;74.57
61128;BME280;47013;42.664;23.242;2023-08-24T05:38:04;94225.94;;;21.91;74.28
61128;BME280;47013;42.664;23.242;2023-08-24T05:40:33;94229.09;;;21.99;74.05
61128;BME280;47013;42.664;23.242;2023-08-24T05:42:59;94238.91;;;22.00;74.03
61128;BME280;47013;42.664;23.242;2023-08-24T05:45:24;94240.38;;;22.10;73.97
61128;BME280;47013;42.664;23.242;2023-08-24T05:47:50;94251.16;;;22.08;74.19
61128;BME280;47013;42.664;23.242;2023-08-24T05:50:15;94246.13;;;21.97;75.00
61128;BME280;47013;42.664;23.242;2023-08-24T05:52:40;94245.44;;;21.88;75.41
61128;BME280;47013;42.664;23.242;2023-08-24T05:55:06;94236.31;;;21.96;74.70
61128;BME280;47013;42.664;23.242;2023-08-24T05:57:31;94242.38;;;22.10;74.38
61128;BME280;47013;42.664;23.242;2023-08-24T05:59:57;94243.56;;;22.18;74.07
61128;BME280;47013;42.664;23.242;2023-08-24T06:02:22;94254.06;;;22.28;73.64
61128;BME280;47013;42.664;23.242;2023-08-24T06:04:48;94243.66;;;22.38;73.13
61128;BME280;47013;42.664;23.242;2023-08-24T06:07:16;94240.34;;;22.49;73.29
61128;BME280;47013;42.664;23.242;2023-08-24T06:09:41;94246.84;;;22.60;73.15
61128;BME280;47013;42.664;23.242;2023-08-24T06:12:07;94251.81;;;22.71;72.35
61128;BME280;47013;42.664;23.242;2023-08-24T06:14:32;94248.03;;;22.83;71.88
61128;BME280;47013;42.664;23.242;2023-08-24T06:16:58;94245.41;;;22.65;72.69
61128;BME280;47013;42.664;23.242;2023-08-24T06:19:23;94245.72;;;22.82;71.92
61128;BME280;47013;42.664;23.242;2023-08-24T06:21:48;94237.44;;;22.97;71.95
61128;BME280;47013;42.664;23.242;2023-08-24T06:24:14;94241.72;;;23.12;70.87
61128;BME280;47013;42.664;23.242;2023-08-24T06:26:40;94245.19;;;23.28;70.87
61128;BME280;47013;42.664;23.242;2023-08-24T06:29:05;94245.97;;;23.28;70.07
61128;BME280;47013;42.664;23.242;2023-08-24T06:31:30;94249.13;;;23.21;69.63
61128;BME280;47013;42.664;23.242;2023-08-24T06:33:56;94242.50;;;23.48;69.43
61128;BME280;47013;42.664;23.242;2023-08-24T06:36:22;94238.25;;;23.67;68.31
61128;BME280;47013;42.664;23.242;2023-08-24T06:38:47;94244.91;;;23.75;67.63
61128;BME280;47013;42.664;23.242;2023-08-24T06:41:12;94241.94;;;23.99;67.36
61128;BME280;47013;42.664;23.242;2023-08-24T06:43:38;94236.94;;;24.24;66.37
61128;BME280;47013;42.664;23.242;2023-08-24T06:46:05;94235.34;;;24.37;66.15
61128;BME280;47013;42.664;23.242;2023-08-24T06:48:36;94241.41;;;24.62;65.16
61128;BME280;47013;42.664;23.242;2023-08-24T06:51:02;94244.38;;;24.84;63.73
61128;BME280;47013;42.664;23.242;2023-08-24T06:53:28;94242.22;;;24.99;63.67
61128;BME280;47013;42.664;23.242;2023-08-24T06:55:57;94244.69;;;25.18;63.01
61128;BME280;47013;42.664;23.242;2023-08-24T06:58:23;94246.63;;;25.43;61.42
61128;BME280;47013;42.664;23.242;2023-08-24T07:00:48;94248.50;;;25.57;60.09
61128;BME280;47013;42.664;23.242;2023-08-24T07:03:17;94238.25;;;25.75;60.31
61128;BME280;47013;42.664;23.242;2023-08-24T07:05:43;94238.09;;;25.90;59.38
61128;BME280;47013;42.664;23.242;2023-08-24T07:08:08;94243.75;;;26.06;58.38
61128;BME280;47013;42.664;23.242;2023-08-24T07:10:34;94236.47;;;26.20;57.56
61128;BME280;47013;42.664;23.242;2023-08-24T07:12:59;94236.00;;;26.33;58.30
61128;BME280;47013;42.664;23.242;2023-08-24T07:15:24;94224.94;;;26.44;57.44
61128;BME280;47013;42.664;23.242;2023-08-24T07:17:50;94231.28;;;26.56;57.37
61128;BME280;47013;42.664;23.242;2023-08-24T07:20:15;94219.16;;;26.64;56.55
61128;BME280;47013;42.664;23.242;2023-08-24T07:22:41;94218.91;;;26.68;56.25
61128;BME280;47013;42.664;23.242;2023-08-24T07:25:07;94219.19;;;26.92;55.49
61128;BME280;47013;42.664;23.242;2023-08-24T07:27:34;94207.34;;;27.14;55.45
61128;BME280;47013;42.664;23.242;2023-08-24T07:30:00;94212.66;;;27.12;53.23
61128;BME280;47013;42.664;23.242;2023-08-24T07:32:26;94205.81;;;27.19;53.67
61128;BME280;47013;42.664;23.242;2023-08-24T07:34:52;94210.09;;;27.20;53.11
61128;BME280;47013;42.664;23.242;2023-08-24T07:37:18;94220.22;;;27.34;52.85
61128;BME280;47013;42.664;23.242;2023-08-24T07:39:43;94225.78;;;27.45;51.97
61128;BME280;47013;42.664;23.242;2023-08-24T07:42:09;94225.03;;;27.50;51.72
61128;BME280;47013;42.664;23.242;2023-08-24T07:44:34;94223.25;;;27.64;51.24
61128;BME280;47013;42.664;23.242;2023-08-24T07:46:59;94222.91;;;27.96;50.80
61128;BME280;47013;42.664;23.242;2023-08-24T07:49:25;94222.34;;;28.14;49.35
61128;BME280;47013;42.664;23.242;2023-08-24T07:51:50;94227.81;;;28.36;49.60
61128;BME280;47013;42.664;23.242;2023-08-24T07:54:16;94219.38;;;28.53;47.89
61128;BME280;47013;42.664;23.242;2023-08-24T07:56:42;94221.78;;;28.73;47.25
61128;BME280;47013;42.664;23.242;2023-08-24T07:59:07;94220.66;;;28.93;46.36
61128;BME280;47013;42.664;23.242;2023-08-24T08:01:33;94222.28;;;29.13;45.99
61128;BME280;47013;42.664;23.242;2023-08-24T08:03:58;94220.22;;;29.19;44.91
61128;BME280;47013;42.664;23.242;2023-08-24T08:06:25;94218.31;;;29.33;44.48
61128;BME280;47013;42.664;23.242;2023-08-24T08:08:51;94220.50;;;29.46;43.97
61128;BME280;47013;42.664;23.242;2023-08-24T08:11:17;94230.25;;;29.63;43.25
61128;BME280;47013;42.664;23.242;2023-08-24T08:13:43;94227.69;;;29.90;43.16
61128;BME280;47013;42.664;23.242;2023-08-24T08:16:09;94234.47;;;29.94;42.18
61128;BME280;47013;42.664;23.242;2023-08-24T08:18:37;94222.72;;;30.02;41.33
61128;BME280;47013;42.664;23.242;2023-08-24T08:21:14;94216.59;;;30.03;41.03
61128;BME280;47013;42.664;23.242;2023-08-24T08:23:40;94226.84;;;30.19;40.83
61128;BME280;47013;42.664;23.242;2023-08-24T08:26:07;94221.59;;;30.35;40.48
61128;BME280;47013;42.664;23.242;2023-08-24T08:28:32;94224.75;;;30.44;39.42
61128;BME280;47013;42.664;23.242;2023-08-24T08:30:59;94218.66;;;30.65;39.46
61128;BME280;47013;42.664;23.242;2023-08-24T08:33:25;94220.09;;;30.71;38.61
61128;BME280;47013;42.664;23.242;2023-08-24T08:35:50;94215.09;;;30.83;38.86
61128;BME280;47013;42.664;23.242;2023-08-24T08:38:15;94216.38;;;31.01;38.57
61128;BME280;47013;42.664;23.242;2023-08-24T08:40:41;94206.50;;;31.13;37.47
61128;BME280;47013;42.664;23.242;2023-08-24T08:43:08;94209.69;;;31.36;37.63
61128;BME280;47013;42.664;23.242;2023-08-24T08:45:33;94207.06;;;31.57;37.56
61128;BME280;47013;42.664;23.242;2023-08-24T08:48:00;94200.63;;;31.75;37.01
61128;BME280;47013;42.664;23.242;2023-08-24T08:50:26;94196.44;;;31.82;35.99
61128;BME280;47013;42.664;23.242;2023-08-24T08:52:51;94200.06;;;31.77;36.72
61128;BME280;47013;42.664;23.242;2023-08-24T08:55:18;94198.06;;;31.90;36.77
61128;BME280;47013;42.664;23.242;2023-08-24T08:57:47;94196.09;;;31.98;36.31
61128;BME280;47013;42.664;23.242;2023-08-24T09:00:15;94190.38;;;32.04;35.84
61128;BME280;47013;42.664;23.242;2023-08-24T09:02:43;94188.00;;;32.21;35.95
61128;BME280;47013;42.664;23.242;2023-08-24T09:05:11;94181.94;;;32.44;35.58
61128;BME280;47013;42.664;23.242;2023-08-24T09:07:39;94177.56;;;32.69;35.34
61128;BME280;47013;42.664;23.242;2023-08-24T09:10:05;94174.19;;;32.84;34.78
61128;BME280;47013;42.664;23.242;2023-08-24T09:12:32;94175.28;;;33.02;34.39
61128;BME280;47013;42.664;23.242;2023-08-24T09:14:58;94175.75;;;33.13;34.82
61128;BME280;47013;42.664;23.242;2023-08-24T09:17:23;94173.94;;;33.37;34.44
61128;BME280;47013;42.664;23.242;2023-08-24T09:19:50;94166.28;;;33.45;33.72
61128;BME280;47013;42.664;23.242;2023-08-24T09:22:17;94165.88;;;33.62;33.63
61128;BME280;47013;42.664;23.242;2023-08-24T09:24:42;94162.69;;;33.65;33.33
61128;BME280;47013;42.664;23.242;2023-08-24T09:27:16;94159.78;;;33.79;33.21
61128;BME280;47013;42.664;23.242;2023-08-24T09:29:42;94159.03;;;33.78;32.63
61128;BME280;47013;42.664;23.242;2023-08-24T09:32:08;94154.16;;;33.79;32.51
61128;BME280;47013;42.664;23.242;2023-08-24T09:34:36;94143.41;;;33.98;31.87
61128;BME280;47013;42.664;23.242;2023-08-24T09:37:02;94153.97;;;34.05;32.04
61128;BME280;47013;42.664;23.242;2023-08-24T09:39:29;94148.25;;;33.90;31.69
61128;BME280;47013;42.664;23.242;2023-08-24T09:42:00;94145.47;;;33.97;31.45
61128;BME280;47013;42.664;23.242;2023-08-24T09:44:28;94143.28;;;34.04;31.62
61128;BME280;47013;42.664;23.242;2023-08-24T09:46:54;94142.75;;;34.13;30.71
61128;BME280;47013;42.664;23.242;2023-08-24T09:49:19;94133.97;;;34.24;29.58
61128;BME280;47013;42.664;23.242;2023-08-24T09:51:45;94132.69;;;34.25;29.94
61128;BME280;47013;42.664;23.242;2023-08-24T09:54:11;94123.41;;;33.73;31.16
61128;BME280;47013;42.664;23.242;2023-08-24T09:56:39;94120.91;;;33.98;30.99
61128;BME280;47013;42.664;23.242;2023-08-24T09:59:11;94120.88;;;34.26;30.35
61128;BME280;47013;42.664;23.242;2023-08-24T10:01:38;94111.41;;;34.52;30.69
61128;BME280;47013;42.664;23.242;2023-08-24T10:04:04;94119.28;;;34.62;30.12
61128;BME280;47013;42.664;23.242;2023-08-24T10:06:30;94118.22;;;34.80;30.33
61128;BME280;47013;42.664;23.242;2023-08-24T10:09:01;94118.63;;;34.99;28.88
61128;BME280;47013;42.664;23.242;2023-08-24T10:11:30;94118.25;;;34.95;29.28
61128;BME280;47013;42.664;23.242;2023-08-24T10:16:33;94115.75;;;34.76;28.62
61128;BME280;47013;42.664;23.242;2023-08-24T10:18:59;94112.88;;;34.38;29.04
61128;BME280;47013;42.664;23.242;2023-08-24T10:21:27;94109.19;;;34.15;30.25
61128;BME280;47013;42.664;23.242;2023-08-24T10:23:55;94110.66;;;34.52;29.73
61128;BME280;47013;42.664;23.242;2023-08-24T10:26:22;94104.09;;;34.65;29.07
61128;BME280;47013;42.664;23.242;2023-08-24T10:28:50;94108.13;;;34.92;29.19
61128;BME280;47013;42.664;23.242;2023-08-24T10:31:15;94102.28;;;35.13;28.52
61128;BME280;47013;42.664;23.242;2023-08-24T10:33:41;94099.84;;;35.32;28.66
61128;BME280;47013;42.664;23.242;2023-08-24T10:36:09;94102.84;;;35.34;27.96
61128;BME280;47013;42.664;23.242;2023-08-24T10:38:40;94090.81;;;35.57;28.24
61128;BME280;47013;42.664;23.242;2023-08-24T10:41:09;94090.63;;;35.70;27.82
61128;BME280;47013;42.664;23.242;2023-08-24T10:43:39;94093.59;;;35.87;26.55
61128;BME280;47013;42.664;23.242;2023-08-24T10:46:12;94093.94;;;35.99;26.01
61128;BME280;47013;42.664;23.242;2023-08-24T10:51:21;94081.78;;;35.58;25.40
61128;BME280;47013;42.664;23.242;2023-08-24T10:53:58;94089.91;;;35.31;26.29
61128;BME280;47013;42.664;23.242;2023-08-24T10:56:38;94089.13;;;35.00;27.14
61128;BME280;47013;42.664;23.242;2023-08-24T10:59:15;94090.78;;;34.73;27.74
61128;BME280;47013;42.664;23.242;2023-08-24T11:01:42;94095.97;;;34.38;29.44
61128;BME280;47013;42.664;23.242;2023-08-24T11:04:08;94093.69;;;33.93;30.75
61128;BME280;47013;42.664;23.242;2023-08-24T11:06:34;94085.03;;;33.55;32.12
61128;BME280;47013;42.664;23.242;2023-08-24T11:09:09;94083.31;;;33.23;33.30
61128;BME280;47013;42.664;23.242;2023-08-24T11:11:40;94075.91;;;33.12;33.67
61128;BME280;47013;42.664;23.242;2023-08-24T11:14:19;94086.41;;;32.91;34.53
61128;BME280;47013;42.664;23.242;2023-08-24T11:16:47;94091.31;;;32.56;35.10
61128;BME280;47013;42.664;23.242;2023-08-24T11:19:14;94095.41;;;32.21;34.71
61128;BME280;47013;42.664;23.242;2023-08-24T11:21:41;94093.03;;;32.12;34.58
61128;BME280;47013;42.664;23.242;2023-08-24T11:24:09;94098.28;;;31.95;34.82
61128;BME280;47013;42.664;23.242;2023-08-24T11:26:34;94092.25;;;31.78;34.91
61128;BME280;47013;42.664;23.242;2023-08-24T11:29:04;94101.63;;;31.67;34.73
61128;BME280;47013;42.664;23.242;2023-08-24T11:31:30;94098.50;;;31.57;34.73
61128;BME280;47013;42.664;23.242;2023-08-24T11:33:55;94091.25;;;31.49;35.29
61128;BME280;47013;42.664;23.242;2023-08-24T11:36:21;94096.56;;;31.39;35.33
61128;BME280;47013;42.664;23.242;2023-08-24T11:38:48;94102.53;;;31.17;36.24
61128;BME280;47013;42.664;23.242;2023-08-24T11:41:14;94104.66;;;30.97;36.60
61128;BME280;47013;42.664;23.242;2023-08-24T11:43:40;94108.19;;;30.98;36.75
61128;BME280;47013;42.664;23.242;2023-08-24T11:46:06;94114.84;;;30.81;37.13
61128;BME280;47013;42.664;23.242;2023-08-24T11:48:32;94109.47;;;30.83;37.81
61128;BME280;47013;42.664;23.242;2023-08-24T11:50:57;94109.81;;;30.61;35.80
61128;BME280;47013;42.664;23.242;2023-08-24T11:53:24;94104.28;;;30.56;36.63
61128;BME280;47013;42.664;23.242;2023-08-24T11:55:52;94103.31;;;30.53;37.56
61128;BME280;47013;42.664;23.242;2023-08-24T11:58:18;94097.41;;;30.57;38.14
61128;BME280;47013;42.664;23.242;2023-08-24T12:00:45;94096.06;;;30.44;36.94
61128;BME280;47013;42.664;23.242;2023-08-24T12:03:11;94090.13;;;30.35;36.96
61128;BME280;47013;42.664;23.242;2023-08-24T12:05:37;94079.38;;;30.20;37.08
61128;BME280;47013;42.664;23.242;2023-08-24T12:08:03;94073.22;;;30.08;37.38
61128;BME280;47013;42.664;23.242;2023-08-24T12:10:28;94065.91;;;30.00;37.30
61128;BME280;47013;42.664;23.242;2023-08-24T12:13:04;94053.00;;;29.97;37.31
61128;BME280;47013;42.664;23.242;2023-08-24T12:15:30;94050.50;;;29.93;37.77
61128;BME280;47013;42.664;23.242;2023-08-24T12:18:06;94038.19;;;30.02;38.03
61128;BME280;47013;42.664;23.242;2023-08-24T12:20:32;94045.25;;;30.08;39.26
61128;BME280;47013;42.664;23.242;2023-08-24T12:22:58;94052.78;;;30.13;38.05
61128;BME280;47013;42.664;23.242;2023-08-24T12:25:25;94056.03;;;30.17;36.81
61128;BME280;47013;42.664;23.242;2023-08-24T12:28:11;94055.16;;;30.09;36.75
61128;BME280;47013;42.664;23.242;2023-08-24T12:30:47;94055.06;;;30.15;37.00
61128;BME280;47013;42.664;23.242;2023-08-24T12:33:26;94055.91;;;30.10;36.93
61128;BME280;47013;42.664;23.242;2023-08-24T12:35:52;94058.44;;;30.08;36.92
61128;BME280;47013;42.664;23.242;2023-08-24T12:38:18;94057.47;;;29.86;37.81
61128;BME280;47013;42.664;23.242;2023-08-24T12:40:43;94059.13;;;29.76;38.31
61128;BME280;47013;42.664;23.242;2023-08-24T12:43:09;94063.03;;;29.67;38.12
61128;BME280;47013;42.664;23.242;2023-08-24T12:45:34;94057.91;;;29.72;38.23
61128;BME280;47013;42.664;23.242;2023-08-24T12:48:01;94057.69;;;29.88;38.26
61128;BME280;47013;42.664;23.242;2023-08-24T12:50:27;94054.28;;;29.95;38.00
61128;BME280;47013;42.664;23.242;2023-08-24T12:52:52;94059.72;;;30.07;37.73
61128;BME280;47013;42.664;23.242;2023-08-24T12:55:21;94060.97;;;30.11;38.03
61128;BME280;47013;42.664;23.242;2023-08-24T12:57:46;94060.97;;;30.11;36.96